To NAV CANADA Home Page Login to a new session Search on AWWS site Feedback and Comments Disclaimer Vers la page française équivalente Tips FAQ What's new on the site To the Forecasts and Observations / NOTAM section To "File a Flight Plan" website Publications and other links Update of the User's profile FIC Telephone Numbers My Weather Data Folder Route Weather Data Regional Weather Data Local Weather Data To the Forecasts and Observations / NOTAM section
Request Generated 02/09/2016 at 15:36:57 UTC . Weather information available at that time is displayed.

METAR/TAF

KELOWNA/BC    (show WxCam)

SPECI CYLW 091527Z AUTO 00000KT 6SM BR OVC005 M05/M06 A3048 RMK
SLP348=
SPECI CYLW 091515Z AUTO 00000KT 3SM BR OVC005 M06/M06 A3048 RMK
SLP349=
SPECI CYLW 091512Z AUTO 00000KT 1 1/2SM BR OVC005 M06/M07 A3049 RMK
VIS VRB 1/2-3 SLP350=
METAR CYLW 091500Z AUTO VRB02KT 3/4SM BR OVC005 M06/M06 A3049 RMK ICG
PAST HR SLP351=
SPECI CYLW 091454Z AUTO 00000KT 5/8SM BR OVC005 M06/M06 A3049 RMK ICG
PAST HR SLP351=
SPECI CYLW 091427Z AUTO 01002KT 3/8SM FZFG VV001 M07/M07 A3049 RMK
ICG PAST HR SLP353=
METAR CYLW 091400Z AUTO 03004KT 1/8SM FZFG VV001 M05/M05 A3051 RMK
ICG SLP356=
SPECI CYLW 091333Z AUTO 35003KT 1/2SM FZFG BKN001 OVC008 M06/M06
A3051 RMK ICG INTMT SLP356=
SPECI CYLW 091315Z AUTO 02004KT 5/8SM BR BKN001 M06/M06 A3052 RMK ICG
SLP360=
METAR CYLW 091300Z AUTO 36004KT 1/2SM FZFG VV001 M06/M07 A3052 RMK
ICG SLP360=

TAF AMD CYLW 091335Z 0913/1001 VRB03KT 1/2SM FZFG BKN001 TEMPO
0913/0916 3SM BR SCT001
FM091600 VRB03KT 2SM BR SKC TEMPO 0916/0918 6SM BR
FM091800 VRB03KT P6SM SKC
BECMG 0919/0921 13005KT
RMK FCST BASED ON AUTO OBS. NXT FCST BY 091900Z=
Your time UTC time
Weather data provided by Environment Canada and NAV CANADA